Time;durP1;ratioP1;P1;durP2;ratioP2;P2;SDS_P1;SDS_P2;PMS_P1;PMS_P2;Temp;Humidity;BMP_temperature;BMP_pressure;BME280_temperature;BME280_humidity;BME280_pressure;Samples;Min_cycle;Max_cycle;Signal;HPM_P1;HPM_P2
2023/10/12 00:05:18;;;;;;;9.98;1.90;;;30.70;60.50;;;;;;5091404;28;20225;-71
2023/10/12 00:07:42;;;;;;;12.05;3.28;;;31.00;57.40;;;;;;5090877;28;20278;-70
2023/10/12 00:12:45;;;;;;;10.57;2.30;;;31.70;54.30;;;;;;5092177;28;20660;-73
2023/10/12 00:15:23;;;;;;;6.93;2.20;;;31.40;47.50;;;;;;5092082;28;20297;-69
2023/10/12 00:17:53;;;;;;;7.28;2.38;;;30.90;46.00;;;;;;5091454;28;20190;-69
2023/10/12 00:20:32;;;;;;;5.57;2.05;;;31.50;50.10;;;;;;5092096;28;20179;-69
2023/10/12 00:23:10;;;;;;;4.82;1.70;;;31.40;48.50;;;;;;5091334;28;20643;-67
2023/10/12 00:26:06;;;;;;;7.00;1.70;;;32.30;40.20;;;;;;5090590;28;20256;-69
2023/10/12 00:28:39;;;;;;;4.20;1.50;;;32.70;38.80;;;;;;5092036;28;20277;-70
2023/10/12 00:31:16;;;;;;;4.43;1.73;;;33.00;34.70;;;;;;5091072;28;20175;-72
2023/10/12 00:33:44;;;;;;;5.35;1.98;;;33.20;29.10;;;;;;5071349;28;20217;-69
2023/10/12 00:42:18;;;;;;;3.47;1.70;;;32.60;25.10;;;;;;5092109;28;20183;-72
2023/10/12 00:44:52;;;;;;;2.47;1.48;;;33.00;23.40;;;;;;5093182;28;20190;-71
2023/10/12 00:47:29;;;;;;;8.73;1.65;;;33.00;21.90;;;;;;5093467;28;20214;-71
2023/10/12 00:50:06;;;;;;;2.25;1.20;;;33.50;20.70;;;;;;5073159;28;20672;-70
2023/10/12 00:52:46;;;;;;;4.10;1.60;;;33.60;17.70;;;;;;5073026;28;20245;-70
2023/10/12 00:55:21;;;;;;;6.72;1.58;;;34.10;20.20;;;;;;5072950;28;20184;-72
2023/10/12 00:57:50;;;;;;;1.83;1.38;;;34.40;18.70;;;;;;5073167;28;20175;-68
2023/10/12 01:00:18;;;;;;;4.60;1.90;;;34.50;16.50;;;;;;5072886;28;20172;-71
2023/10/12 01:03:06;;;;;;;4.85;1.80;;;34.60;15.60;;;;;;5072807;28;20190;-68
2023/10/12 01:05:36;;;;;;;3.35;1.10;;;34.10;12.80;;;;;;5072962;28;20526;-70
2023/10/12 01:08:05;;;;;;;5.38;1.40;;;34.60;11.30;;;;;;5072926;28;20227;-71
2023/10/12 01:10:37;;;;;;;5.63;1.27;;;34.30;9.00;;;;;;5072784;28;20184;-69
2023/10/12 01:13:05;;;;;;;8.38;1.73;;;34.00;9.60;;;;;;5072878;28;20188;-69
2023/10/12 01:15:32;;;;;;;6.00;1.67;;;33.90;11.20;;;;;;5072965;28;20175;-72
2023/10/12 01:18:00;;;;;;;7.45;1.50;;;34.00;11.10;;;;;;5088249;28;20210;-72
2023/10/12 01:20:28;;;;;;;4.90;1.60;;;34.60;10.20;;;;;;5072627;28;20649;-72
2023/10/12 01:22:59;;;;;;;5.97;1.50;;;34.90;8.70;;;;;;5072578;28;20195;-71
2023/10/12 01:25:30;;;;;;;5.30;1.20;;;34.90;8.70;;;;;;5084413;28;20219;-70
2023/10/12 01:28:04;;;;;;;2.38;1.05;;;35.40;9.60;;;;;;5092793;28;20219;-70
2023/10/12 01:30:35;;;;;;;3.55;1.35;;;35.20;8.70;;;;;;5091508;28;20265;-72
2023/10/12 01:33:04;;;;;;;5.10;1.20;;;35.20;7.20;;;;;;5092925;28;20191;-68
2023/10/12 01:35:39;;;;;;;5.22;1.42;;;35.60;5.90;;;;;;5093270;28;20170;-71
2023/10/12 01:38:08;;;;;;;2.22;1.10;;;35.50;4.60;;;;;;5095654;28;20276;-70
2023/10/12 01:43:17;;;;;;;2.55;1.05;;;35.90;1.40;;;;;;5096591;28;20506;-73
2023/10/12 01:45:47;;;;;;;3.58;1.20;;;35.70;1.20;;;;;;5096312;28;20187;-72
2023/10/12 01:48:22;;;;;;;3.10;1.05;;;35.40;1.30;;;;;;5095820;28;20248;-71
2023/10/12 01:50:56;;;;;;;2.92;1.10;;;35.60;1.00;;;;;;5096253;28;20236;-72
2023/10/12 01:53:26;;;;;;;1.73;1.00;;;35.50;1.00;;;;;;5096391;28;20517;-68
2023/10/12 01:55:58;;;;;;;7.30;1.95;;;35.40;1.00;;;;;;5096434;28;20183;-69
2023/10/12 01:58:32;;;;;;;2.58;1.00;;;35.50;1.00;;;;;;5094943;28;20277;-71
2023/10/12 02:01:07;;;;;;;2.10;1.20;;;35.30;1.00;;;;;;5076181;28;20180;-70
2023/10/12 02:03:42;;;;;;;3.97;1.10;;;35.70;1.00;;;;;;5075982;28;20603;-71
2023/10/12 02:09:34;;;;;;;2.25;1.27;;;35.80;1.00;;;;;;5090590;28;20217;-70
2023/10/12 02:12:12;;;;;;;1.67;1.20;;;35.50;1.00;;;;;;5093246;28;20864;-71
2023/10/12 02:14:40;;;;;;;6.88;1.40;;;35.30;1.00;;;;;;5093497;28;20556;-68
2023/10/12 02:17:08;;;;;;;4.78;1.02;;;35.40;1.00;;;;;;5093539;28;20182;-68
2023/10/12 02:22:17;;;;;;;6.82;1.15;;;35.70;1.00;;;;;;5093043;28;20610;-69
2023/10/12 02:24:57;;;;;;;1.85;1.10;;;35.90;1.00;;;;;;5093636;28;20249;-71
2023/10/12 02:27:25;;;;;;;3.67;1.05;;;36.00;1.00;;;;;;5084189;28;20222;-71
2023/10/12 02:29:56;;;;;;;2.30;1.10;;;35.60;1.00;;;;;;5093558;28;20175;-71
2023/10/12 02:32:24;;;;;;;3.03;2.25;;;35.50;1.00;;;;;;5092902;28;20245;-68
2023/10/12 02:35:00;;;;;;;5.00;2.03;;;35.40;1.00;;;;;;5093521;28;20282;-69
2023/10/12 02:37:27;;;;;;;4.47;1.15;;;35.50;1.00;;;;;;5093290;28;20183;-71
2023/10/12 02:39:56;;;;;;;6.28;2.53;;;35.30;1.00;;;;;;5076609;28;20634;-72
2023/10/12 02:42:38;;;;;;;2.30;1.35;;;35.80;1.00;;;;;;5092440;28;20201;-70
2023/10/12 02:47:40;;;;;;;3.00;1.05;;;35.50;1.00;;;;;;5092828;28;20211;-73
2023/10/12 02:52:37;;;;;;;4.90;0.90;;;35.70;1.00;;;;;;5092591;28;20262;-71
2023/10/12 02:57:59;;;;;;;1.55;1.00;;;35.60;1.00;;;;;;5093451;28;20577;-67
2023/10/12 03:05:52;;;;;;;1.73;0.98;;;35.70;1.00;;;;;;5093526;28;20178;-70
2023/10/12 03:08:20;;;;;;;2.90;1.10;;;35.40;1.00;;;;;;5092328;28;20218;-67
2023/10/12 03:11:25;;;;;;;4.55;1.15;;;35.10;1.00;;;;;;5092991;28;20176;-69
2023/10/12 03:13:54;;;;;;;5.50;1.13;;;34.80;1.00;;;;;;5091058;28;20203;-71
2023/10/12 03:16:22;;;;;;;3.10;1.20;;;35.40;1.00;;;;;;5092843;28;20704;-71
2023/10/12 03:19:35;;;;;;;2.55;1.20;;;35.70;1.00;;;;;;5092805;28;20195;-73
2023/10/12 03:21:40;;;;;;;7.13;1.13;;;36.00;1.00;;;;;;5091720;28;20434;-72
2023/10/12 03:24:10;;;;;;;4.97;1.10;;;36.10;1.00;;;;;;5092832;28;20197;-73
2023/10/12 03:30:17;;;;;;;4.78;1.15;;;35.40;1.00;;;;;;5092231;28;20237;-71
2023/10/12 03:32:45;;;;;;;9.10;1.65;;;35.40;1.00;;;;;;5092437;28;20198;-72
2023/10/12 03:35:15;;;;;;;1.70;1.20;;;35.50;1.00;;;;;;5092872;28;20183;-73
2023/10/12 03:37:52;;;;;;;5.55;1.13;;;35.70;1.00;;;;;;5092427;28;20175;-72
2023/10/12 03:43:12;;;;;;;4.38;1.30;;;35.50;1.00;;;;;;5092725;28;20567;-73
2023/10/12 03:46:00;;;;;;;4.53;1.50;;;35.60;1.00;;;;;;5092187;28;20281;-73
2023/10/12 03:48:50;;;;;;;4.20;1.20;;;35.80;1.00;;;;;;5092482;28;20266;-69
2023/10/12 03:54:03;;;;;;;3.20;1.17;;;36.00;1.00;;;;;;5092249;28;20189;-73
2023/10/12 03:56:39;;;;;;;3.13;1.17;;;35.90;1.00;;;;;;5092567;28;20179;-72
2023/10/12 03:59:07;;;;;;;1.85;1.00;;;35.30;1.00;;;;;;5091952;28;20248;-72
2023/10/12 04:01:40;;;;;;;2.83;1.25;;;35.50;1.00;;;;;;5091884;28;20191;-71
2023/10/12 04:04:21;;;;;;;2.20;1.02;;;35.50;1.00;;;;;;5092393;28;20621;-72
2023/10/12 04:09:31;;;;;;;6.30;1.00;;;35.40;1.00;;;;;;5091783;28;20253;-73
2023/10/12 04:12:16;;;;;;;6.43;1.27;;;35.60;1.00;;;;;;5091121;28;20783;-71
2023/10/12 04:14:56;;;;;;;6.50;1.55;;;35.50;1.00;;;;;;5091671;28;20236;-72
2023/10/12 04:23:15;;;;;;;4.00;1.30;;;35.60;1.00;;;;;;5091571;28;20671;-72
2023/10/12 04:25:34;;;;;;;7.93;1.30;;;35.60;1.00;;;;;;5086755;28;20228;-73
2023/10/12 04:28:18;;;;;;;3.95;1.25;;;35.40;1.00;;;;;;5071443;28;20350;-70
2023/10/12 04:33:29;;;;;;;1.95;1.02;;;35.30;1.00;;;;;;5091652;28;20183;-71
2023/10/12 04:44:52;;;;;;;30.38;3.83;;;35.70;1.00;;;;;;5090650;28;20174;-72
2023/10/12 04:46:48;;;;;;;3.40;1.25;;;35.20;1.00;;;;;;5085435;28;20261;-72
2023/10/12 04:52:09;;;;;;;1.25;1.15;;;35.00;1.00;;;;;;5090452;28;20183;-74
2023/10/12 04:54:36;;;;;;;5.85;1.30;;;35.20;1.00;;;;;;5088570;28;20187;-75
2023/10/12 04:59:50;;;;;;;1.75;0.88;;;35.00;1.00;;;;;;5090545;28;20551;-73
2023/10/12 05:02:28;;;;;;;4.90;1.08;;;35.00;1.00;;;;;;5090831;28;20217;-73
2023/10/12 05:07:27;;;;;;;4.18;1.40;;;35.20;1.00;;;;;;5090729;28;20211;-73
2023/10/12 05:09:58;;;;;;;4.25;1.10;;;35.30;1.00;;;;;;5091179;28;20228;-72
2023/10/12 05:12:26;;;;;;;3.25;1.50;;;35.10;1.00;;;;;;5094907;28;20186;-73
2023/10/12 05:14:55;;;;;;;3.45;1.13;;;35.00;1.00;;;;;;5094755;28;20190;-69
2023/10/12 05:17:23;;;;;;;8.45;1.50;;;34.50;1.00;;;;;;5094427;28;20698;-72
2023/10/12 05:19:53;;;;;;;3.80;1.00;;;34.30;1.00;;;;;;5095471;28;20171;-70
2023/10/12 05:22:21;;;;;;;6.22;1.60;;;34.10;1.00;;;;;;5094685;28;20202;-70
2023/10/12 05:24:49;;;;;;;1.52;1.17;;;33.80;1.00;;;;;;5095184;28;20223;-69
2023/10/12 05:27:23;;;;;;;4.15;1.48;;;33.60;1.00;;;;;;5093628;28;20268;-74
2023/10/12 05:29:59;;;;;;;1.73;0.80;;;33.60;1.00;;;;;;5095178;28;20179;-73
2023/10/12 05:32:42;;;;;;;5.85;1.25;;;33.60;1.00;;;;;;5094640;28;20175;-75
2023/10/12 05:35:16;;;;;;;3.30;1.20;;;33.70;1.00;;;;;;5094809;28;20201;-72
2023/10/12 05:37:50;;;;;;;2.42;1.10;;;33.60;1.00;;;;;;5094780;28;20232;-73
2023/10/12 05:40:18;;;;;;;1.48;1.20;;;33.30;1.00;;;;;;5094720;28;20514;-72
2023/10/12 05:42:48;;;;;;;3.50;1.27;;;33.40;1.00;;;;;;5094124;28;20273;-75
2023/10/12 05:45:30;;;;;;;3.47;1.20;;;33.30;1.00;;;;;;5094688;28;20189;-74
2023/10/12 05:47:59;;;;;;;6.22;1.48;;;33.50;1.00;;;;;;5094519;28;20207;-70
2023/10/12 05:50:30;;;;;;;6.35;1.38;;;33.90;1.00;;;;;;5092733;28;20167;-70
2023/10/12 05:53:01;;;;;;;4.13;1.17;;;33.80;1.00;;;;;;5094771;28;20273;-76
2023/10/12 05:55:33;;;;;;;4.68;1.42;;;33.70;1.00;;;;;;5094716;28;20171;-75
2023/10/12 05:58:15;;;;;;;9.32;1.50;;;33.50;1.00;;;;;;5094563;28;20187;-75
2023/10/12 06:00:46;;;;;;;1.98;0.95;;;33.40;1.00;;;;;;5094768;28;20174;-76
2023/10/12 06:03:17;;;;;;;6.95;1.00;;;33.10;1.00;;;;;;5094672;28;20612;-75
2023/10/12 06:05:45;;;;;;;4.22;1.15;;;32.90;1.00;;;;;;5094260;28;20542;-74
2023/10/12 06:08:18;;;;;;;3.47;1.20;;;32.70;1.00;;;;;;5094230;28;20199;-76
2023/10/12 06:10:46;;;;;;;4.82;1.33;;;32.70;1.00;;;;;;5094189;28;20171;-72
2023/10/12 06:13:17;;;;;;;4.43;1.30;;;32.60;1.00;;;;;;5093913;28;20179;-73
2023/10/12 06:15:53;;;;;;;3.17;1.30;;;32.50;1.00;;;;;;5094636;28;20187;-74
2023/10/12 06:18:30;;;;;;;7.40;1.20;;;32.50;1.00;;;;;;5093839;28;20253;-71
2023/10/12 06:20:58;;;;;;;5.10;1.40;;;32.60;1.00;;;;;;5093458;28;20194;-74
2023/10/12 06:23:29;;;;;;;6.82;1.35;;;33.00;1.00;;;;;;5092816;28;20203;-73
2023/10/12 06:25:57;;;;;;;3.75;1.40;;;33.20;1.00;;;;;;5093835;28;20719;-72
2023/10/12 06:28:27;;;;;;;6.68;1.23;;;33.40;1.00;;;;;;5093195;28;20830;-73
2023/10/12 06:30:56;;;;;;;5.07;1.50;;;33.70;1.00;;;;;;5093739;28;20233;-76
2023/10/12 06:33:23;;;;;;;3.13;1.00;;;33.50;1.00;;;;;;5093737;28;20179;-74
2023/10/12 06:36:00;;;;;;;11.65;1.35;;;33.30;1.00;;;;;;5092959;28;20179;-73
2023/10/12 06:43:57;;;;;;;4.00;1.27;;;32.80;1.00;;;;;;5093028;28;20214;-72
2023/10/12 06:46:35;;;;;;;8.05;1.42;;;32.50;1.00;;;;;;5092270;28;20652;-70
2023/10/12 06:49:04;;;;;;;7.50;1.35;;;32.30;1.00;;;;;;5071747;28;20298;-70
2023/10/12 06:51:33;;;;;;;7.50;1.50;;;32.40;1.00;;;;;;5073521;28;20183;-71
2023/10/12 06:54:17;;;;;;;6.68;1.40;;;32.50;1.00;;;;;;5085131;28;20208;-74
2023/10/12 06:56:50;;;;;;;2.45;1.30;;;32.40;1.00;;;;;;5093251;28;20171;-72
2023/10/12 06:59:22;;;;;;;5.80;1.52;;;32.30;1.00;;;;;;5093551;28;20644;-73
2023/10/12 07:04:27;;;;;;;2.05;1.40;;;32.00;1.00;;;;;;5092671;28;20186;-72
2023/10/12 07:07:07;;;;;;;4.20;1.50;;;31.80;1.00;;;;;;5093040;28;20219;-69
2023/10/12 07:09:46;;;;;;;1.60;0.95;;;31.80;1.00;;;;;;5093295;28;20610;-73
2023/10/12 07:12:19;;;;;;;2.70;1.48;;;31.80;1.00;;;;;;5092326;28;20183;-73
2023/10/12 07:14:54;;;;;;;2.80;1.42;;;31.80;1.00;;;;;;5092352;28;20215;-74
2023/10/12 07:17:31;;;;;;;4.22;1.60;;;32.00;1.00;;;;;;5092538;28;20632;-75
2023/10/12 07:19:59;;;;;;;4.45;1.23;;;32.00;1.00;;;;;;5092638;28;20197;-73
2023/10/12 07:22:27;;;;;;;6.70;1.70;;;32.10;1.00;;;;;;5093084;28;20171;-74
2023/10/12 07:24:56;;;;;;;2.42;1.50;;;32.10;1.00;;;;;;5092357;28;20265;-70
2023/10/12 07:27:25;;;;;;;5.53;1.35;;;32.10;1.00;;;;;;5092193;28;20263;-73
2023/10/12 07:30:30;;;;;;;2.17;1.42;;;32.10;1.00;;;;;;5092601;28;20175;-73
2023/10/12 07:33:05;;;;;;;4.60;1.40;;;31.90;1.00;;;;;;5092763;28;20266;-74
2023/10/12 07:35:39;;;;;;;10.23;1.98;;;31.80;1.00;;;;;;5092383;28;20174;-74
2023/10/12 07:38:28;;;;;;;8.30;1.88;;;31.60;1.00;;;;;;5092854;28;20206;-72
2023/10/12 07:41:00;;;;;;;3.10;1.67;;;31.50;1.00;;;;;;5091761;28;20205;-73
2023/10/12 07:43:32;;;;;;;5.72;1.60;;;31.30;1.00;;;;;;5092378;28;20652;-72
2023/10/12 07:48:49;;;;;;;4.78;1.50;;;31.10;1.00;;;;;;5074388;28;20722;-74
2023/10/12 07:51:26;;;;;;;9.23;1.88;;;31.00;1.00;;;;;;5073749;28;20194;-71
2023/10/12 07:53:59;;;;;;;6.67;1.67;;;30.80;1.00;;;;;;5090354;28;20243;-72
2023/10/12 07:56:33;;;;;;;6.60;1.50;;;30.70;1.00;;;;;;5093775;28;20248;-73
2023/10/12 07:59:01;;;;;;;9.37;1.57;;;30.70;1.00;;;;;;5093702;28;20186;-73
2023/10/12 08:04:00;;;;;;;2.00;1.13;;;30.60;1.00;;;;;;5093668;28;20187;-73
2023/10/12 08:09:22;;;;;;;3.22;1.40;;;30.40;1.00;;;;;;5087161;28;20188;-69
2023/10/12 08:11:49;;;;;;;2.67;1.50;;;30.30;1.00;;;;;;5080707;28;20708;-74
2023/10/12 08:19:43;;;;;;;4.37;1.83;;;30.30;1.00;;;;;;5092093;28;20662;-77
2023/10/12 08:22:26;;;;;;;4.03;1.67;;;30.20;1.00;;;;;;5092119;28;20203;-73
2023/10/12 08:24:59;;;;;;;4.50;1.80;;;30.10;1.00;;;;;;5090454;28;20234;-74
2023/10/12 08:27:27;;;;;;;3.97;1.73;;;30.10;1.00;;;;;;5092282;28;20215;-74
2023/10/12 08:32:29;;;;;;;7.60;2.03;;;29.90;1.00;;;;;;5091437;28;20178;-72
2023/10/12 08:37:27;;;;;;;3.38;1.70;;;29.90;1.00;;;;;;5092029;28;20281;-74
2023/10/12 08:45:08;;;;;;;31.90;5.10;;;29.10;1.00;;;;;;5091087;28;20219;-71
2023/10/12 08:50:14;;;;;;;28.67;4.67;;;27.00;19.30;;;;;;5071595;28;20183;-70
2023/10/12 08:52:52;;;;;;;18.63;3.23;;;26.00;99.90;;;;;;5081185;28;20235;-71
2023/10/12 08:55:24;;;;;;;14.47;3.50;;;24.80;99.90;;;;;;5091144;28;20208;-70
2023/10/12 08:58:38;;;;;;;11.70;2.60;;;24.10;99.90;;;;;;5091411;28;20195;-70
2023/10/12 09:01:10;;;;;;;16.27;2.90;;;23.80;99.90;;;;;;5071351;28;20188;-71
2023/10/12 09:03:39;;;;;;;13.23;3.17;;;23.80;99.90;;;;;;5087529;28;20249;-69
2023/10/12 09:09:09;;;;;;;6.70;2.50;;;23.90;99.90;;;;;;5068556;28;20199;-70
2023/10/12 09:11:38;;;;;;;7.33;2.10;;;23.90;99.90;;;;;;5081481;28;20247;-72
2023/10/12 09:14:11;;;;;;;2.67;1.70;;;24.10;99.90;;;;;;5091247;28;20300;-70
2023/10/12 09:16:42;;;;;;;6.53;1.90;;;24.30;99.90;;;;;;5093104;28;20179;-70
2023/10/12 09:19:32;;;;;;;6.17;1.70;;;24.50;99.90;;;;;;5092812;28;20180;-69
2023/10/12 09:22:01;;;;;;;7.90;1.67;;;24.60;99.90;;;;;;5092740;28;20191;-72
2023/10/12 09:24:36;;;;;;;9.03;2.40;;;24.80;99.90;;;;;;5092391;28;20219;-71
2023/10/12 09:27:26;;;;;;;4.77;1.80;;;24.80;99.90;;;;;;5092743;28;20218;-71
2023/10/12 09:30:01;;;;;;;5.03;2.13;;;24.90;99.90;;;;;;5092935;28;20183;-71
2023/10/12 09:32:32;;;;;;;6.07;1.83;;;25.00;99.90;;;;;;5093245;28;20194;-70
2023/10/12 09:38:22;;;;;;;6.93;2.00;;;25.00;99.90;;;;;;5092212;28;20554;-69
2023/10/12 09:40:52;;;;;;;6.40;2.33;;;25.00;99.90;;;;;;5092959;28;20175;-69
2023/10/12 09:43:25;;;;;;;5.03;1.87;;;24.90;99.90;;;;;;5092685;28;20226;-71
2023/10/12 09:45:58;;;;;;;7.77;2.03;;;24.90;99.90;;;;;;5092985;28;20262;-69
2023/10/12 09:48:29;;;;;;;4.33;1.87;;;24.90;99.90;;;;;;5092902;28;20273;-69
2023/10/12 09:51:06;;;;;;;2.93;1.80;;;24.80;99.90;;;;;;5092651;28;20179;-71
2023/10/12 09:53:41;;;;;;;3.37;1.90;;;24.80;99.90;;;;;;5092807;28;20636;-69
2023/10/12 09:56:18;;;;;;;4.57;1.73;;;24.70;99.90;;;;;;5092897;28;20232;-71
2023/10/12 09:58:52;;;;;;;2.97;1.70;;;24.60;99.90;;;;;;5095140;28;20645;-70
2023/10/12 10:07:18;;;;;;;7.47;1.97;;;23.10;99.90;;;;;;5083792;28;20215;-70
2023/10/12 10:09:54;;;;;;;3.67;1.80;;;22.50;99.90;;;;;;5096364;28;20164;-71
2023/10/12 10:12:24;;;;;;;2.63;1.70;;;22.20;99.90;;;;;;5096319;28;20694;-70
2023/10/12 10:14:59;;;;;;;3.43;1.53;;;22.00;99.90;;;;;;5096202;28;20179;-71
2023/10/12 10:17:46;;;;;;;3.87;1.60;;;21.80;99.90;;;;;;5096353;28;20183;-70
2023/10/12 10:22:56;;;;;;;8.63;1.87;;;21.30;99.90;;;;;;5096163;28;20175;-72
2023/10/12 10:25:35;;;;;;;7.67;2.00;;;21.20;99.90;;;;;;5095860;28;20321;-70
2023/10/12 10:28:07;;;;;;;8.50;2.00;;;21.00;99.90;;;;;;5096126;28;20209;-70
2023/10/12 10:30:56;;;;;;;5.13;1.90;;;20.80;99.90;;;;;;5095831;28;20187;-71
2023/10/12 10:33:25;;;;;;;6.33;1.73;;;20.60;99.90;;;;;;5095893;28;20188;-70
2023/10/12 10:36:04;;;;;;;4.03;1.40;;;20.50;99.90;;;;;;5095933;28;20540;-69
2023/10/12 10:38:33;;;;;;;2.83;1.40;;;20.40;99.90;;;;;;5095510;28;20194;-71
2023/10/12 10:43:59;;;;;;;4.60;1.70;;;20.20;99.90;;;;;;5086794;28;20232;-69
2023/10/12 10:49:49;;;;;;;9.20;1.50;;;20.00;99.90;;;;;;5067834;28;20190;-72
2023/10/12 10:52:20;;;;;;;3.93;1.27;;;20.00;99.90;;;;;;5093757;28;20195;-72
2023/10/12 10:54:59;;;;;;;2.60;1.43;;;19.90;99.90;;;;;;5093411;28;20232;-73
2023/10/12 10:57:31;;;;;;;3.30;1.23;;;19.80;99.90;;;;;;5092438;28;20264;-72
2023/10/12 10:59:59;;;;;;;2.33;1.13;;;19.70;99.90;;;;;;5093086;28;20175;-72
2023/10/12 11:02:27;;;;;;;3.00;1.13;;;19.70;99.90;;;;;;5092000;28;20190;-73
2023/10/12 11:05:02;;;;;;;0.80;0.80;;;19.50;99.90;;;;;;5093319;28;20620;-74
2023/10/12 11:07:29;;;;;;;2.37;1.07;;;19.30;99.90;;;;;;5093201;28;20219;-70
2023/10/12 11:12:31;;;;;;;17.63;0.97;;;19.20;99.90;;;;;;5093313;28;20176;-73
2023/10/12 11:15:19;;;;;;;2.70;1.10;;;19.10;99.90;;;;;;5093375;28;20180;-75
2023/10/12 11:18:07;;;;;;;3.50;0.77;;;19.00;99.90;;;;;;5090377;28;20274;-71
2023/10/12 11:23:08;;;;;;;1.40;0.77;;;18.80;99.90;;;;;;5093368;28;20189;-73
2023/10/12 11:25:43;;;;;;;1.33;0.70;;;18.80;99.90;;;;;;5091974;28;20255;-73
2023/10/12 11:28:22;;;;;;;1.33;0.70;;;18.70;99.90;;;;;;5091893;28;20305;-73
2023/10/12 11:30:51;;;;;;;2.13;0.80;;;18.70;99.90;;;;;;5093190;28;20178;-71
2023/10/12 11:33:29;;;;;;;0.93;0.70;;;18.70;99.90;;;;;;5092434;28;20633;-72
2023/10/12 11:36:04;;;;;;;2.87;1.03;;;18.70;99.90;;;;;;5092994;28;20183;-73
2023/10/12 11:38:31;;;;;;;1.03;0.60;;;18.70;99.90;;;;;;5092968;28;20711;-73
2023/10/12 11:41:13;;;;;;;2.23;0.80;;;18.70;99.90;;;;;;5092414;28;20789;-72
2023/10/12 11:43:53;;;;;;;2.27;0.80;;;18.70;99.90;;;;;;5092641;28;20216;-73
2023/10/12 11:46:23;;;;;;;2.10;0.63;;;18.70;99.90;;;;;;5092778;28;20537;-73
2023/10/12 11:49:04;;;;;;;2.60;1.03;;;18.70;99.90;;;;;;5092057;28;20195;-74
2023/10/12 11:51:39;;;;;;;4.17;0.70;;;18.70;99.90;;;;;;5092607;28;20182;-72
2023/10/12 11:54:09;;;;;;;0.73;0.60;;;18.80;99.90;;;;;;5092413;28;20200;-71
2023/10/12 11:56:43;;;;;;;0.90;0.70;;;18.80;99.90;;;;;;5092062;28;20181;-71
2023/10/12 11:59:19;;;;;;;2.77;0.73;;;18.70;99.90;;;;;;5092727;28;20171;-73
2023/10/12 12:01:51;;;;;;;1.27;1.00;;;18.80;99.90;;;;;;5091837;28;20190;-71
2023/10/12 12:04:24;;;;;;;1.70;0.67;;;18.70;99.90;;;;;;5092254;28;20241;-71
2023/10/12 12:06:53;;;;;;;0.40;0.40;;;18.50;99.90;;;;;;5092542;28;20242;-72
2023/10/12 12:09:22;;;;;;;1.90;1.03;;;18.50;99.90;;;;;;5090642;28;20217;-71
2023/10/12 12:11:53;;;;;;;1.33;0.90;;;18.50;99.00;;;;;;5092228;28;20205;-73
2023/10/12 12:14:20;;;;;;;1.63;0.87;;;18.50;98.20;;;;;;5092013;28;20273;-73
2023/10/12 12:16:48;;;;;;;1.13;0.80;;;18.40;99.00;;;;;;5091815;28;20191;-72
2023/10/12 12:19:22;;;;;;;2.07;0.73;;;18.40;99.20;;;;;;5092327;28;20206;-72
2023/10/12 12:21:49;;;;;;;1.57;0.80;;;18.30;99.20;;;;;;5091450;28;20259;-72
2023/10/12 12:24:24;;;;;;;1.30;0.60;;;18.30;98.50;;;;;;5091375;28;20691;-71
2023/10/12 12:26:53;;;;;;;1.43;0.67;;;18.20;97.10;;;;;;5093308;28;20702;-71
2023/10/12 12:29:26;;;;;;;3.07;0.70;;;18.20;98.20;;;;;;5092456;28;20207;-72
2023/10/12 12:32:03;;;;;;;2.00;0.90;;;18.10;97.00;;;;;;5092590;28;20195;-72
2023/10/12 12:34:41;;;;;;;3.80;1.00;;;18.10;99.90;;;;;;5093008;28;20182;-72
2023/10/12 12:37:09;;;;;;;2.17;0.83;;;17.60;99.90;;;;;;5092937;28;20210;-70
2023/10/12 12:39:36;;;;;;;1.13;0.80;;;16.90;99.90;;;;;;5092412;28;20236;-71
2023/10/12 12:42:11;;;;;;;2.50;0.97;;;16.40;99.90;;;;;;5092764;28;20187;-73
2023/10/12 12:44:42;;;;;;;4.00;1.20;;;16.10;99.90;;;;;;5093624;28;20207;-71
2023/10/12 12:47:09;;;;;;;1.23;0.90;;;15.90;99.90;;;;;;5092910;28;20220;-72
2023/10/12 12:49:37;;;;;;;1.60;0.80;;;15.90;99.90;;;;;;5092624;28;20636;-72
2023/10/12 12:52:04;;;;;;;2.20;0.97;;;15.70;99.90;;;;;;5092346;28;20207;-72
2023/10/12 12:54:31;;;;;;;2.70;1.10;;;15.60;99.90;;;;;;5093078;28;20177;-73
2023/10/12 12:56:59;;;;;;;2.57;1.07;;;15.50;99.90;;;;;;5093343;28;20177;-72
2023/10/12 12:59:28;;;;;;;3.83;1.07;;;15.40;99.90;;;;;;5092928;28;20265;-70
2023/10/12 13:01:55;;;;;;;2.43;0.97;;;15.20;99.90;;;;;;5092971;28;20228;-71
2023/10/12 13:04:23;;;;;;;1.57;0.80;;;15.10;99.90;;;;;;5092811;28;20177;-71
2023/10/12 13:06:51;;;;;;;2.70;1.10;;;15.10;99.90;;;;;;5092300;28;20205;-73
2023/10/12 13:09:33;;;;;;;3.47;1.20;;;15.10;99.90;;;;;;5091986;28;20179;-72
2023/10/12 13:12:01;;;;;;;1.47;1.00;;;15.10;99.90;;;;;;5092733;28;20189;-73
2023/10/12 13:14:28;;;;;;;2.00;1.10;;;15.20;99.90;;;;;;5092446;28;20183;-73
2023/10/12 13:16:56;;;;;;;1.60;0.93;;;15.20;99.90;;;;;;5092976;28;20184;-70
2023/10/12 13:19:24;;;;;;;0.93;0.60;;;15.40;99.90;;;;;;5092269;28;20544;-73
2023/10/12 13:21:52;;;;;;;2.60;1.00;;;15.40;99.90;;;;;;5092644;28;20255;-73
2023/10/12 13:24:19;;;;;;;1.60;1.00;;;15.60;99.90;;;;;;5092190;28;20296;-73
2023/10/12 13:26:46;;;;;;;4.67;1.00;;;15.50;99.90;;;;;;5092480;28;20193;-71
2023/10/12 13:29:14;;;;;;;2.17;1.00;;;15.50;99.90;;;;;;5092261;28;20235;-70
2023/10/12 13:31:41;;;;;;;2.53;1.00;;;15.50;99.90;;;;;;5093385;28;20171;-71
2023/10/12 13:34:10;;;;;;;2.97;0.97;;;15.40;99.90;;;;;;5096445;28;20545;-72
2023/10/12 13:36:39;;;;;;;1.50;1.30;;;15.40;99.90;;;;;;5096586;28;20644;-71
2023/10/12 13:39:10;;;;;;;1.93;1.10;;;15.50;99.90;;;;;;5092119;28;20183;-72
2023/10/12 13:41:37;;;;;;;2.90;1.07;;;15.40;99.90;;;;;;5096418;28;20734;-72
2023/10/12 13:44:05;;;;;;;1.90;0.90;;;15.40;99.90;;;;;;5096459;28;20171;-72
2023/10/12 13:46:38;;;;;;;1.73;0.90;;;15.50;99.90;;;;;;5095852;28;20187;-72
2023/10/12 13:49:06;;;;;;;2.77;0.90;;;15.50;99.90;;;;;;5096029;28;20633;-72
2023/10/12 13:51:36;;;;;;;3.53;1.10;;;15.50;99.90;;;;;;5096262;28;20183;-72
2023/10/12 13:54:06;;;;;;;1.83;0.83;;;15.40;99.90;;;;;;5096118;28;20222;-71
2023/10/12 13:56:34;;;;;;;0.73;0.67;;;15.40;99.90;;;;;;5085744;28;20179;-71
2023/10/12 13:59:02;;;;;;;3.27;0.80;;;15.50;99.90;;;;;;5095741;28;20175;-72
2023/10/12 14:01:36;;;;;;;1.20;0.80;;;15.40;99.90;;;;;;5096142;28;20232;-71
2023/10/12 14:04:28;;;;;;;1.53;0.90;;;15.40;99.90;;;;;;5095950;28;20182;-72
2023/10/12 14:06:52;;;;;;;2.53;0.70;;;15.50;99.90;;;;;;5095736;28;20668;-71
2023/10/12 14:09:27;;;;;;;2.30;0.87;;;15.60;99.90;;;;;;5095384;28;20186;-71
2023/10/12 14:11:55;;;;;;;1.37;0.70;;;15.60;99.90;;;;;;5095311;28;20186;-71
2023/10/12 14:14:26;;;;;;;1.97;0.70;;;15.70;99.90;;;;;;5095999;28;20187;-71
2023/10/12 14:16:53;;;;;;;4.63;0.80;;;15.70;99.90;;;;;;5095274;28;20187;-73
2023/10/12 14:19:24;;;;;;;2.20;0.70;;;15.60;99.90;;;;;;5094980;28;20219;-71
2023/10/12 14:21:54;;;;;;;4.53;0.90;;;15.60;99.90;;;;;;5095290;28;20187;-72
2023/10/12 14:24:24;;;;;;;2.30;0.77;;;15.50;99.90;;;;;;5095230;28;20646;-72
2023/10/12 14:26:55;;;;;;;0.57;0.57;;;15.50;99.90;;;;;;5094994;28;20691;-72
2023/10/12 14:29:24;;;;;;;1.20;0.60;;;15.40;99.90;;;;;;5093406;28;20304;-73
2023/10/12 14:31:52;;;;;;;1.70;0.70;;;15.30;99.90;;;;;;5094983;28;20177;-72
2023/10/12 14:34:19;;;;;;;1.63;0.80;;;15.30;99.90;;;;;;5095562;28;20293;-71
2023/10/12 14:36:46;;;;;;;1.93;0.70;;;15.40;99.90;;;;;;5095050;28;20189;-72
2023/10/12 14:39:22;;;;;;;1.80;0.70;;;15.30;99.90;;;;;;5095459;28;20195;-74
2023/10/12 14:41:50;;;;;;;0.77;0.77;;;15.20;99.90;;;;;;5095185;28;20180;-71
2023/10/12 14:44:19;;;;;;;0.73;0.70;;;15.30;99.90;;;;;;5092689;28;20555;-72
2023/10/12 14:46:49;;;;;;;1.77;0.70;;;15.30;99.90;;;;;;5095211;28;20258;-74
2023/10/12 14:49:17;;;;;;;1.27;0.80;;;15.20;99.90;;;;;;5093536;28;20542;-71
2023/10/12 14:51:44;;;;;;;5.70;0.63;;;15.20;99.90;;;;;;5094759;28;20183;-70
2023/10/12 14:54:11;;;;;;;2.33;0.50;;;15.20;99.90;;;;;;5095238;28;20183;-69
2023/10/12 14:56:42;;;;;;;0.73;0.60;;;15.10;99.90;;;;;;5095190;28;20694;-72
2023/10/12 14:59:09;;;;;;;0.83;0.77;;;14.90;99.90;;;;;;5093572;28;20674;-70
2023/10/12 15:01:38;;;;;;;1.03;0.70;;;14.80;99.90;;;;;;5092028;28;20217;-72
2023/10/12 15:04:07;;;;;;;3.37;0.77;;;14.80;99.90;;;;;;5094833;28;20273;-72
2023/10/12 15:06:34;;;;;;;1.07;0.60;;;14.60;99.90;;;;;;5094426;28;20179;-72
2023/10/12 15:09:03;;;;;;;4.20;0.87;;;14.50;99.90;;;;;;5094784;28;20225;-71
2023/10/12 15:11:33;;;;;;;2.00;0.70;;;14.40;99.90;;;;;;5094597;28;20211;-71
2023/10/12 15:14:00;;;;;;;3.33;0.70;;;14.40;99.90;;;;;;5094246;28;20219;-72
2023/10/12 15:16:30;;;;;;;0.80;0.70;;;14.40;99.90;;;;;;5094631;28;20221;-72
2023/10/12 15:18:58;;;;;;;0.60;0.60;;;14.20;99.90;;;;;;5093737;28;20199;-71
2023/10/12 15:21:25;;;;;;;1.80;0.57;;;14.10;99.90;;;;;;5093251;28;20679;-72
2023/10/12 15:23:53;;;;;;;0.80;0.70;;;14.00;99.90;;;;;;5094699;28;20191;-72
2023/10/12 15:26:22;;;;;;;1.50;0.60;;;13.90;99.90;;;;;;5094467;28;20240;-71
2023/10/12 15:28:50;;;;;;;1.77;0.60;;;13.80;99.90;;;;;;5094450;28;20217;-72